sensor_id;sensor_type;location;lat;lon;timestamp;temperature;humidity
48007;DHT22;33771;48.180;11.400;2022-11-28T00:00:54;0.90;99.90
48007;DHT22;33771;48.180;11.400;2022-11-28T00:03:19;1.00;99.90
48007;DHT22;33771;48.180;11.400;2022-11-28T00:05:47;0.90;99.90
48007;DHT22;33771;48.180;11.400;2022-11-28T00:08:12;0.90;99.90
48007;DHT22;33771;48.180;11.400;2022-11-28T00:10:39;0.90;99.90
48007;DHT22;33771;48.180;11.400;2022-11-28T00:13:05;0.90;99.90
48007;DHT22;33771;48.180;11.400;2022-11-28T00:15:30;0.90;99.90
48007;DHT22;33771;48.180;11.400;2022-11-28T00:17:56;0.90;99.90
48007;DHT22;33771;48.180;11.400;2022-11-28T00:20:21;0.80;99.90
48007;DHT22;33771;48.180;11.400;2022-11-28T00:22:47;0.90;99.90
48007;DHT22;33771;48.180;11.400;2022-11-28T00:25:12;0.80;99.90
48007;DHT22;33771;48.180;11.400;2022-11-28T00:27:38;0.80;99.90
48007;DHT22;33771;48.180;11.400;2022-11-28T00:30:04;0.80;99.90
48007;DHT22;33771;48.180;11.400;2022-11-28T00:32:30;0.80;99.90
48007;DHT22;33771;48.180;11.400;2022-11-28T00:34:55;0.80;99.90
48007;DHT22;33771;48.180;11.400;2022-11-28T00:37:21;0.80;99.90
48007;DHT22;33771;48.180;11.400;2022-11-28T00:39:46;0.80;99.90
48007;DHT22;33771;48.180;11.400;2022-11-28T00:42:12;0.80;99.90
48007;DHT22;33771;48.180;11.400;2022-11-28T00:44:37;0.80;99.90
48007;DHT22;33771;48.180;11.400;2022-11-28T00:47:03;0.80;99.90
48007;DHT22;33771;48.180;11.400;2022-11-28T00:49:29;0.80;99.90
48007;DHT22;33771;48.180;11.400;2022-11-28T00:51:54;0.70;99.90
48007;DHT22;33771;48.180;11.400;2022-11-28T00:54:20;0.70;99.90
48007;DHT22;33771;48.180;11.400;2022-11-28T00:56:45;0.70;99.90
48007;DHT22;33771;48.180;11.400;2022-11-28T00:59:11;0.70;99.90
48007;DHT22;33771;48.180;11.400;2022-11-28T01:01:39;0.70;99.90
48007;DHT22;33771;48.180;11.400;2022-11-28T01:04:08;0.70;99.90
48007;DHT22;33771;48.180;11.400;2022-11-28T01:06:39;0.70;99.90
48007;DHT22;33771;48.180;11.400;2022-11-28T01:09:15;0.70;99.90
48007;DHT22;33771;48.180;11.400;2022-11-28T01:11:41;0.70;99.90
48007;DHT22;33771;48.180;11.400;2022-11-28T01:14:07;0.60;99.90
48007;DHT22;33771;48.180;11.400;2022-11-28T01:16:33;0.60;99.90
48007;DHT22;33771;48.180;11.400;2022-11-28T01:18:58;0.60;99.90
48007;DHT22;33771;48.180;11.400;2022-11-28T01:21:25;0.60;99.90
48007;DHT22;33771;48.180;11.400;2022-11-28T01:23:50;0.70;99.90
48007;DHT22;33771;48.180;11.400;2022-11-28T01:26:22;0.70;99.90
48007;DHT22;33771;48.180;11.400;2022-11-28T01:28:48;0.70;99.90
48007;DHT22;33771;48.180;11.400;2022-11-28T01:31:15;0.70;99.90
48007;DHT22;33771;48.180;11.400;2022-11-28T01:33:42;0.70;99.90
48007;DHT22;33771;48.180;11.400;2022-11-28T01:36:08;0.70;99.90
48007;DHT22;33771;48.180;11.400;2022-11-28T01:38:34;0.70;99.90
48007;DHT22;33771;48.180;11.400;2022-11-28T01:41:00;0.70;99.90
48007;DHT22;33771;48.180;11.400;2022-11-28T01:43:26;0.70;99.90
48007;DHT22;33771;48.180;11.400;2022-11-28T01:45:52;0.60;99.90
48007;DHT22;33771;48.180;11.400;2022-11-28T01:48:24;0.60;99.90
48007;DHT22;33771;48.180;11.400;2022-11-28T01:50:57;0.70;99.90
48007;DHT22;33771;48.180;11.400;2022-11-28T01:53:27;0.60;99.90
48007;DHT22;33771;48.180;11.400;2022-11-28T01:56:05;0.60;99.90
48007;DHT22;33771;48.180;11.400;2022-11-28T01:58:35;0.60;99.90
48007;DHT22;33771;48.180;11.400;2022-11-28T02:01:03;0.60;99.90
48007;DHT22;33771;48.180;11.400;2022-11-28T02:03:33;0.60;99.90
48007;DHT22;33771;48.180;11.400;2022-11-28T02:06:02;0.60;99.90
48007;DHT22;33771;48.180;11.400;2022-11-28T02:08:32;0.60;99.90
48007;DHT22;33771;48.180;11.400;2022-11-28T02:11:07;0.60;99.90
48007;DHT22;33771;48.180;11.400;2022-11-28T02:14:24;0.60;99.90
48007;DHT22;33771;48.180;11.400;2022-11-28T02:25:41;0.70;99.90
48007;DHT22;33771;48.180;11.400;2022-11-28T02:34:02;0.80;99.90
48007;DHT22;33771;48.180;11.400;2022-11-28T02:36:45;0.80;99.90
48007;DHT22;33771;48.180;11.400;2022-11-28T02:42:05;0.80;99.90
48007;DHT22;33771;48.180;11.400;2022-11-28T02:47:17;0.90;99.90
48007;DHT22;33771;48.180;11.400;2022-11-28T02:49:46;0.90;99.90
48007;DHT22;33771;48.180;11.400;2022-11-28T02:52:20;0.80;99.90
48007;DHT22;33771;48.180;11.400;2022-11-28T02:54:48;0.90;99.90
48007;DHT22;33771;48.180;11.400;2022-11-28T02:57:14;0.90;99.90
48007;DHT22;33771;48.180;11.400;2022-11-28T03:15:20;0.80;99.90
48007;DHT22;33771;48.180;11.400;2022-11-28T03:18:26;0.80;99.90
48007;DHT22;33771;48.180;11.400;2022-11-28T03:20:59;0.80;99.90
48007;DHT22;33771;48.180;11.400;2022-11-28T03:23:32;0.80;99.90
48007;DHT22;33771;48.180;11.400;2022-11-28T03:26:28;0.80;99.90
48007;DHT22;33771;48.180;11.400;2022-11-28T03:29:11;0.80;99.90
48007;DHT22;33771;48.180;11.400;2022-11-28T03:31:44;0.80;99.90
48007;DHT22;33771;48.180;11.400;2022-11-28T03:34:16;0.80;99.90
48007;DHT22;33771;48.180;11.400;2022-11-28T03:36:49;0.80;99.90
48007;DHT22;33771;48.180;11.400;2022-11-28T03:39:22;0.80;99.90
48007;DHT22;33771;48.180;11.400;2022-11-28T03:42:06;0.80;99.90
48007;DHT22;33771;48.180;11.400;2022-11-28T03:45:10;0.80;99.90
48007;DHT22;33771;48.180;11.400;2022-11-28T03:47:43;0.80;99.90
48007;DHT22;33771;48.180;11.400;2022-11-28T03:50:17;0.80;99.90
48007;DHT22;33771;48.180;11.400;2022-11-28T03:52:52;0.80;99.90
48007;DHT22;33771;48.180;11.400;2022-11-28T03:55:24;0.80;99.90
48007;DHT22;33771;48.180;11.400;2022-11-28T03:58:07;0.80;99.90
48007;DHT22;33771;48.180;11.400;2022-11-28T04:00:37;0.80;99.90
48007;DHT22;33771;48.180;11.400;2022-11-28T04:03:21;0.80;99.90
48007;DHT22;33771;48.180;11.400;2022-11-28T04:06:13;0.80;99.90
48007;DHT22;33771;48.180;11.400;2022-11-28T04:08:47;0.80;99.90
48007;DHT22;33771;48.180;11.400;2022-11-28T04:11:19;0.80;99.90
48007;DHT22;33771;48.180;11.400;2022-11-28T04:13:57;0.80;99.90
48007;DHT22;33771;48.180;11.400;2022-11-28T04:16:47;0.90;99.90
48007;DHT22;33771;48.180;11.400;2022-11-28T04:21:58;0.90;99.90
48007;DHT22;33771;48.180;11.400;2022-11-28T04:24:39;0.90;99.90
48007;DHT22;33771;48.180;11.400;2022-11-28T04:27:12;0.90;99.90
48007;DHT22;33771;48.180;11.400;2022-11-28T04:29:43;0.90;99.90
48007;DHT22;33771;48.180;11.400;2022-11-28T04:32:11;0.90;99.90
48007;DHT22;33771;48.180;11.400;2022-11-28T04:34:40;1.00;99.90
48007;DHT22;33771;48.180;11.400;2022-11-28T04:37:08;1.00;99.90
48007;DHT22;33771;48.180;11.400;2022-11-28T04:39:35;1.00;99.90
48007;DHT22;33771;48.180;11.400;2022-11-28T04:42:12;1.00;99.90
48007;DHT22;33771;48.180;11.400;2022-11-28T04:44:54;1.00;99.90
48007;DHT22;33771;48.180;11.400;2022-11-28T04:47:22;1.00;99.90
48007;DHT22;33771;48.180;11.400;2022-11-28T04:49:48;1.10;99.90
48007;DHT22;33771;48.180;11.400;2022-11-28T04:57:19;1.10;99.90
48007;DHT22;33771;48.180;11.400;2022-11-28T04:59:46;1.10;99.90
48007;DHT22;33771;48.180;11.400;2022-11-28T05:02:13;1.10;99.90
48007;DHT22;33771;48.180;11.400;2022-11-28T05:04:42;1.10;99.90
48007;DHT22;33771;48.180;11.400;2022-11-28T05:07:08;1.10;99.90
48007;DHT22;33771;48.180;11.400;2022-11-28T05:09:35;1.10;99.90
48007;DHT22;33771;48.180;11.400;2022-11-28T05:12:00;1.10;99.90
48007;DHT22;33771;48.180;11.400;2022-11-28T05:14:26;1.10;99.90
48007;DHT22;33771;48.180;11.400;2022-11-28T05:16:52;1.10;99.90
48007;DHT22;33771;48.180;11.400;2022-11-28T05:19:18;1.10;99.90
48007;DHT22;33771;48.180;11.400;2022-11-28T05:21:43;1.10;99.90
48007;DHT22;33771;48.180;11.400;2022-11-28T05:24:09;1.10;99.90
48007;DHT22;33771;48.180;11.400;2022-11-28T05:26:35;1.10;99.90
48007;DHT22;33771;48.180;11.400;2022-11-28T05:29:01;1.10;99.90
48007;DHT22;33771;48.180;11.400;2022-11-28T05:31:27;1.10;99.90
48007;DHT22;33771;48.180;11.400;2022-11-28T05:33:54;1.20;99.90
48007;DHT22;33771;48.180;11.400;2022-11-28T05:36:20;1.10;99.90
48007;DHT22;33771;48.180;11.400;2022-11-28T05:38:46;1.10;99.90
48007;DHT22;33771;48.180;11.400;2022-11-28T05:41:26;1.20;99.90
48007;DHT22;33771;48.180;11.400;2022-11-28T05:43:52;1.20;99.90
48007;DHT22;33771;48.180;11.400;2022-11-28T05:46:18;1.10;99.90
48007;DHT22;33771;48.180;11.400;2022-11-28T05:48:44;1.10;99.90
48007;DHT22;33771;48.180;11.400;2022-11-28T05:51:10;1.10;99.90
48007;DHT22;33771;48.180;11.400;2022-11-28T05:53:36;1.10;99.90
48007;DHT22;33771;48.180;11.400;2022-11-28T05:56:09;1.10;99.90
48007;DHT22;33771;48.180;11.400;2022-11-28T05:58:35;1.10;99.90
48007;DHT22;33771;48.180;11.400;2022-11-28T06:01:14;1.10;99.90
48007;DHT22;33771;48.180;11.400;2022-11-28T06:03:40;1.10;99.90
48007;DHT22;33771;48.180;11.400;2022-11-28T06:06:13;1.10;99.90
48007;DHT22;33771;48.180;11.400;2022-11-28T06:08:40;1.10;99.90
48007;DHT22;33771;48.180;11.400;2022-11-28T06:11:05;1.10;99.90
48007;DHT22;33771;48.180;11.400;2022-11-28T06:13:31;1.10;99.90
48007;DHT22;33771;48.180;11.400;2022-11-28T06:15:57;1.10;99.90
48007;DHT22;33771;48.180;11.400;2022-11-28T06:18:23;1.10;99.90
48007;DHT22;33771;48.180;11.400;2022-11-28T06:20:48;1.10;99.90
48007;DHT22;33771;48.180;11.400;2022-11-28T06:23:14;1.10;99.90
48007;DHT22;33771;48.180;11.400;2022-11-28T06:25:43;1.10;99.90
48007;DHT22;33771;48.180;11.400;2022-11-28T06:28:10;1.20;99.90
48007;DHT22;33771;48.180;11.400;2022-11-28T06:30:35;1.10;99.90
48007;DHT22;33771;48.180;11.400;2022-11-28T06:33:01;1.20;99.90
48007;DHT22;33771;48.180;11.400;2022-11-28T06:35:27;1.20;99.90
48007;DHT22;33771;48.180;11.400;2022-11-28T06:37:52;1.20;99.90
48007;DHT22;33771;48.180;11.400;2022-11-28T06:40:18;1.20;99.90
48007;DHT22;33771;48.180;11.400;2022-11-28T06:42:43;1.20;99.90
48007;DHT22;33771;48.180;11.400;2022-11-28T06:45:09;1.20;99.90
48007;DHT22;33771;48.180;11.400;2022-11-28T06:47:35;1.20;99.90
48007;DHT22;33771;48.180;11.400;2022-11-28T06:50:00;1.20;99.90
48007;DHT22;33771;48.180;11.400;2022-11-28T06:52:26;1.20;99.90
48007;DHT22;33771;48.180;11.400;2022-11-28T06:54:52;1.20;99.90
48007;DHT22;33771;48.180;11.400;2022-11-28T06:57:17;1.20;99.90
48007;DHT22;33771;48.180;11.400;2022-11-28T06:59:43;1.20;99.90
48007;DHT22;33771;48.180;11.400;2022-11-28T07:02:10;1.30;99.90
48007;DHT22;33771;48.180;11.400;2022-11-28T07:04:35;1.30;99.90
48007;DHT22;33771;48.180;11.400;2022-11-28T07:07:01;1.30;99.90
48007;DHT22;33771;48.180;11.400;2022-11-28T07:09:27;1.30;99.90
48007;DHT22;33771;48.180;11.400;2022-11-28T07:11:53;1.30;99.90
48007;DHT22;33771;48.180;11.400;2022-11-28T07:14:18;1.40;99.90
48007;DHT22;33771;48.180;11.400;2022-11-28T07:16:44;1.40;99.90
48007;DHT22;33771;48.180;11.400;2022-11-28T07:19:10;1.40;99.90
48007;DHT22;33771;48.180;11.400;2022-11-28T07:21:38;1.40;99.90
48007;DHT22;33771;48.180;11.400;2022-11-28T07:24:05;1.40;99.90
48007;DHT22;33771;48.180;11.400;2022-11-28T07:26:31;1.40;99.90
48007;DHT22;33771;48.180;11.400;2022-11-28T07:28:57;1.50;99.90
48007;DHT22;33771;48.180;11.400;2022-11-28T07:31:24;1.50;99.90
48007;DHT22;33771;48.180;11.400;2022-11-28T07:33:52;1.50;99.90
48007;DHT22;33771;48.180;11.400;2022-11-28T07:36:19;1.50;99.90
48007;DHT22;33771;48.180;11.400;2022-11-28T07:38:48;1.60;99.90
48007;DHT22;33771;48.180;11.400;2022-11-28T07:41:15;1.60;99.90
48007;DHT22;33771;48.180;11.400;2022-11-28T07:43:42;1.60;99.90
48007;DHT22;33771;48.180;11.400;2022-11-28T07:46:10;1.60;99.90
48007;DHT22;33771;48.180;11.400;2022-11-28T07:48:36;1.60;99.90
48007;DHT22;33771;48.180;11.400;2022-11-28T07:51:10;1.60;99.90
48007;DHT22;33771;48.180;11.400;2022-11-28T07:53:37;1.60;99.90
48007;DHT22;33771;48.180;11.400;2022-11-28T07:56:08;1.70;99.90
48007;DHT22;33771;48.180;11.400;2022-11-28T07:58:35;1.70;99.90
48007;DHT22;33771;48.180;11.400;2022-11-28T08:01:15;1.70;99.90
48007;DHT22;33771;48.180;11.400;2022-11-28T08:03:42;1.70;99.90
48007;DHT22;33771;48.180;11.400;2022-11-28T08:06:09;1.70;99.90
48007;DHT22;33771;48.180;11.400;2022-11-28T08:08:35;1.80;99.90
48007;DHT22;33771;48.180;11.400;2022-11-28T08:11:03;1.80;99.90
48007;DHT22;33771;48.180;11.400;2022-11-28T08:13:29;1.80;99.90
48007;DHT22;33771;48.180;11.400;2022-11-28T08:15:54;1.80;99.90
48007;DHT22;33771;48.180;11.400;2022-11-28T08:18:20;1.80;99.90
48007;DHT22;33771;48.180;11.400;2022-11-28T08:20:46;1.90;99.90
48007;DHT22;33771;48.180;11.400;2022-11-28T08:23:11;1.90;99.90
48007;DHT22;33771;48.180;11.400;2022-11-28T08:25:37;1.90;99.90
48007;DHT22;33771;48.180;11.400;2022-11-28T08:28:03;1.90;99.90
48007;DHT22;33771;48.180;11.400;2022-11-28T08:30:31;1.90;99.90
48007;DHT22;33771;48.180;11.400;2022-11-28T08:32:56;2.00;99.90
48007;DHT22;33771;48.180;11.400;2022-11-28T08:35:22;2.00;99.90
48007;DHT22;33771;48.180;11.400;2022-11-28T08:37:48;2.00;99.90
48007;DHT22;33771;48.180;11.400;2022-11-28T08:40:14;2.00;99.90
48007;DHT22;33771;48.180;11.400;2022-11-28T08:42:39;2.10;99.90
48007;DHT22;33771;48.180;11.400;2022-11-28T08:45:05;2.10;99.90
48007;DHT22;33771;48.180;11.400;2022-11-28T08:47:31;2.10;99.90
48007;DHT22;33771;48.180;11.400;2022-11-28T08:49:57;2.10;99.90
48007;DHT22;33771;48.180;11.400;2022-11-28T08:52:25;2.10;99.90
48007;DHT22;33771;48.180;11.400;2022-11-28T08:54:50;2.20;99.90
48007;DHT22;33771;48.180;11.400;2022-11-28T08:57:16;2.20;99.90
48007;DHT22;33771;48.180;11.400;2022-11-28T08:59:41;2.20;99.90
48007;DHT22;33771;48.180;11.400;2022-11-28T09:02:10;2.20;99.90
48007;DHT22;33771;48.180;11.400;2022-11-28T09:04:37;2.20;99.90
48007;DHT22;33771;48.180;11.400;2022-11-28T09:07:02;2.30;99.90
48007;DHT22;33771;48.180;11.400;2022-11-28T09:09:28;2.30;99.90
48007;DHT22;33771;48.180;11.400;2022-11-28T09:11:54;2.40;99.90
48007;DHT22;33771;48.180;11.400;2022-11-28T09:14:20;2.50;99.90
48007;DHT22;33771;48.180;11.400;2022-11-28T09:16:46;2.60;99.90
48007;DHT22;33771;48.180;11.400;2022-11-28T09:19:11;2.60;99.90
48007;DHT22;33771;48.180;11.400;2022-11-28T09:21:37;2.70;99.90
48007;DHT22;33771;48.180;11.400;2022-11-28T09:24:03;2.70;99.90
48007;DHT22;33771;48.180;11.400;2022-11-28T09:26:29;2.80;99.90
48007;DHT22;33771;48.180;11.400;2022-11-28T09:28:55;2.80;99.90
48007;DHT22;33771;48.180;11.400;2022-11-28T09:31:20;2.80;99.90
48007;DHT22;33771;48.180;11.400;2022-11-28T09:33:46;2.90;99.90
48007;DHT22;33771;48.180;11.400;2022-11-28T09:36:16;2.90;99.90
48007;DHT22;33771;48.180;11.400;2022-11-28T09:38:42;3.00;99.90
48007;DHT22;33771;48.180;11.400;2022-11-28T09:43:54;3.00;99.90
48007;DHT22;33771;48.180;11.400;2022-11-28T09:46:28;3.10;99.90
48007;DHT22;33771;48.180;11.400;2022-11-28T09:48:59;3.20;99.90
48007;DHT22;33771;48.180;11.400;2022-11-28T09:51:47;3.20;99.90
48007;DHT22;33771;48.180;11.400;2022-11-28T09:56:56;3.30;99.90
48007;DHT22;33771;48.180;11.400;2022-11-28T09:59:28;3.40;99.90
48007;DHT22;33771;48.180;11.400;2022-11-28T10:04:41;3.50;99.90
48007;DHT22;33771;48.180;11.400;2022-11-28T10:12:18;3.70;99.90
48007;DHT22;33771;48.180;11.400;2022-11-28T10:20:55;3.90;99.90
48007;DHT22;33771;48.180;11.400;2022-11-28T10:23:41;3.90;99.90
48007;DHT22;33771;48.180;11.400;2022-11-28T10:26:15;4.00;99.90
48007;DHT22;33771;48.180;11.400;2022-11-28T10:28:45;4.00;99.90
48007;DHT22;33771;48.180;11.400;2022-11-28T10:31:22;4.10;99.90
48007;DHT22;33771;48.180;11.400;2022-11-28T10:34:06;4.10;99.90
48007;DHT22;33771;48.180;11.400;2022-11-28T10:36:56;4.20;99.90
48007;DHT22;33771;48.180;11.400;2022-11-28T10:39:24;4.10;99.90
48007;DHT22;33771;48.180;11.400;2022-11-28T10:48:07;4.30;99.90
48007;DHT22;33771;48.180;11.400;2022-11-28T10:50:51;4.40;99.90
48007;DHT22;33771;48.180;11.400;2022-11-28T10:53:37;4.40;99.90
48007;DHT22;33771;48.180;11.400;2022-11-28T10:56:35;4.50;99.90
48007;DHT22;33771;48.180;11.400;2022-11-28T11:01:35;4.50;99.90
48007;DHT22;33771;48.180;11.400;2022-11-28T11:04:02;4.50;99.90
48007;DHT22;33771;48.180;11.400;2022-11-28T11:06:27;4.60;99.90
48007;DHT22;33771;48.180;11.400;2022-11-28T11:08:53;4.70;99.90
48007;DHT22;33771;48.180;11.400;2022-11-28T11:11:32;4.70;99.90
48007;DHT22;33771;48.180;11.400;2022-11-28T11:16:46;4.80;99.90
48007;DHT22;33771;48.180;11.400;2022-11-28T11:19:36;4.90;99.90
48007;DHT22;33771;48.180;11.400;2022-11-28T11:24:28;4.90;99.90
48007;DHT22;33771;48.180;11.400;2022-11-28T11:27:02;5.00;99.90
48007;DHT22;33771;48.180;11.400;2022-11-28T11:29:34;5.00;99.90
48007;DHT22;33771;48.180;11.400;2022-11-28T11:32:03;5.10;99.90
48007;DHT22;33771;48.180;11.400;2022-11-28T11:34:44;5.10;99.90
48007;DHT22;33771;48.180;11.400;2022-11-28T11:39:53;5.30;99.90
48007;DHT22;33771;48.180;11.400;2022-11-28T11:42:30;5.40;99.90
48007;DHT22;33771;48.180;11.400;2022-11-28T11:45:22;5.40;99.90
48007;DHT22;33771;48.180;11.400;2022-11-28T11:47:43;5.40;99.90
48007;DHT22;33771;48.180;11.400;2022-11-28T11:50:16;5.50;99.90
48007;DHT22;33771;48.180;11.400;2022-11-28T11:52:43;5.50;99.90
48007;DHT22;33771;48.180;11.400;2022-11-28T11:55:15;5.50;99.90
48007;DHT22;33771;48.180;11.400;2022-11-28T11:57:48;5.50;99.90
48007;DHT22;33771;48.180;11.400;2022-11-28T12:00:19;5.50;99.90
48007;DHT22;33771;48.180;11.400;2022-11-28T12:02:46;5.50;99.90
48007;DHT22;33771;48.180;11.400;2022-11-28T12:08:10;5.50;99.90
48007;DHT22;33771;48.180;11.400;2022-11-28T12:10:45;5.50;99.90
48007;DHT22;33771;48.180;11.400;2022-11-28T12:13:19;5.50;99.90
48007;DHT22;33771;48.180;11.400;2022-11-28T12:15:57;5.50;99.90
48007;DHT22;33771;48.180;11.400;2022-11-28T12:18:34;5.50;99.90
48007;DHT22;33771;48.180;11.400;2022-11-28T12:21:41;5.50;99.90
48007;DHT22;33771;48.180;11.400;2022-11-28T12:24:09;5.50;99.90
48007;DHT22;33771;48.180;11.400;2022-11-28T12:26:41;5.60;99.90
48007;DHT22;33771;48.180;11.400;2022-11-28T12:32:08;5.50;99.90
48007;DHT22;33771;48.180;11.400;2022-11-28T12:42:56;5.60;99.90
48007;DHT22;33771;48.180;11.400;2022-11-28T13:00:03;5.70;99.90
48007;DHT22;33771;48.180;11.400;2022-11-28T13:02:45;5.60;99.90
48007;DHT22;33771;48.180;11.400;2022-11-28T13:13:15;5.60;99.90
48007;DHT22;33771;48.180;11.400;2022-11-28T13:18:48;5.60;99.90
48007;DHT22;33771;48.180;11.400;2022-11-28T13:24:03;5.60;99.90
48007;DHT22;33771;48.180;11.400;2022-11-28T13:34:44;5.70;99.90
48007;DHT22;33771;48.180;11.400;2022-11-28T13:37:53;5.70;99.90
48007;DHT22;33771;48.180;11.400;2022-11-28T13:40:05;5.70;99.90
48007;DHT22;33771;48.180;11.400;2022-11-28T13:42:54;5.70;99.90
48007;DHT22;33771;48.180;11.400;2022-11-28T13:45:37;5.70;99.90
48007;DHT22;33771;48.180;11.400;2022-11-28T13:51:21;5.70;99.90
48007;DHT22;33771;48.180;11.400;2022-11-28T13:53:47;5.70;99.90
48007;DHT22;33771;48.180;11.400;2022-11-28T13:56:22;5.70;99.90
48007;DHT22;33771;48.180;11.400;2022-11-28T13:59:01;5.70;99.90
48007;DHT22;33771;48.180;11.400;2022-11-28T14:01:42;5.70;99.90
48007;DHT22;33771;48.180;11.400;2022-11-28T14:04:13;5.70;99.90
48007;DHT22;33771;48.180;11.400;2022-11-28T14:07:00;5.70;99.90
48007;DHT22;33771;48.180;11.400;2022-11-28T14:20:54;5.70;99.90
48007;DHT22;33771;48.180;11.400;2022-11-28T14:25:57;5.70;99.90
48007;DHT22;33771;48.180;11.400;2022-11-28T14:28:34;5.70;99.90
48007;DHT22;33771;48.180;11.400;2022-11-28T14:31:26;5.70;99.90
48007;DHT22;33771;48.180;11.400;2022-11-28T14:34:01;5.60;99.90
48007;DHT22;33771;48.180;11.400;2022-11-28T14:36:37;5.60;99.90
48007;DHT22;33771;48.180;11.400;2022-11-28T14:44:51;5.60;99.90
48007;DHT22;33771;48.180;11.400;2022-11-28T14:52:41;5.60;99.90
48007;DHT22;33771;48.180;11.400;2022-11-28T14:57:56;5.50;99.90
48007;DHT22;33771;48.180;11.400;2022-11-28T15:00:49;5.50;99.90
48007;DHT22;33771;48.180;11.400;2022-11-28T15:03:39;5.40;99.90
48007;DHT22;33771;48.180;11.400;2022-11-28T15:06:18;5.40;99.90
48007;DHT22;33771;48.180;11.400;2022-11-28T15:08:55;5.40;99.90
48007;DHT22;33771;48.180;11.400;2022-11-28T15:14:38;5.30;99.90
48007;DHT22;33771;48.180;11.400;2022-11-28T15:17:05;5.30;99.90
48007;DHT22;33771;48.180;11.400;2022-11-28T15:19:47;5.30;99.90
48007;DHT22;33771;48.180;11.400;2022-11-28T15:22:39;5.30;99.90
48007;DHT22;33771;48.180;11.400;2022-11-28T15:25:26;5.20;99.90
48007;DHT22;33771;48.180;11.400;2022-11-28T15:27:53;5.20;99.90
48007;DHT22;33771;48.180;11.400;2022-11-28T15:30:24;5.10;99.90
48007;DHT22;33771;48.180;11.400;2022-11-28T15:33:00;5.10;99.90
48007;DHT22;33771;48.180;11.400;2022-11-28T15:35:26;5.10;99.90
48007;DHT22;33771;48.180;11.400;2022-11-28T15:37:56;5.10;99.90
48007;DHT22;33771;48.180;11.400;2022-11-28T15:40:29;5.00;99.90
48007;DHT22;33771;48.180;11.400;2022-11-28T15:42:55;5.00;99.90
48007;DHT22;33771;48.180;11.400;2022-11-28T15:45:24;5.00;99.90
48007;DHT22;33771;48.180;11.400;2022-11-28T15:47:51;5.00;99.90
48007;DHT22;33771;48.180;11.400;2022-11-28T15:50:23;5.00;99.90
48007;DHT22;33771;48.180;11.400;2022-11-28T15:53:01;5.00;99.90
48007;DHT22;33771;48.180;11.400;2022-11-28T15:55:32;5.00;99.90
48007;DHT22;33771;48.180;11.400;2022-11-28T15:58:24;5.00;99.90
48007;DHT22;33771;48.180;11.400;2022-11-28T16:01:00;4.90;99.90
48007;DHT22;33771;48.180;11.400;2022-11-28T16:03:32;4.90;99.90
48007;DHT22;33771;48.180;11.400;2022-11-28T16:05:59;4.90;99.90
48007;DHT22;33771;48.180;11.400;2022-11-28T16:08:32;4.90;99.90
48007;DHT22;33771;48.180;11.400;2022-11-28T16:11:01;4.90;99.90
48007;DHT22;33771;48.180;11.400;2022-11-28T16:13:28;4.90;99.90
48007;DHT22;33771;48.180;11.400;2022-11-28T16:15:55;4.90;99.90
48007;DHT22;33771;48.180;11.400;2022-11-28T16:18:24;4.80;99.90
48007;DHT22;33771;48.180;11.400;2022-11-28T16:20:51;4.80;99.90
48007;DHT22;33771;48.180;11.400;2022-11-28T16:23:26;4.80;99.90
48007;DHT22;33771;48.180;11.400;2022-11-28T16:29:02;4.80;99.90
48007;DHT22;33771;48.180;11.400;2022-11-28T16:31:34;4.80;99.90
48007;DHT22;33771;48.180;11.400;2022-11-28T16:34:03;4.70;99.90
48007;DHT22;33771;48.180;11.400;2022-11-28T16:39:14;4.70;99.90
48007;DHT22;33771;48.180;11.400;2022-11-28T16:42:04;4.70;99.90
48007;DHT22;33771;48.180;11.400;2022-11-28T16:44:34;4.70;99.90
48007;DHT22;33771;48.180;11.400;2022-11-28T16:46:59;4.60;99.90
48007;DHT22;33771;48.180;11.400;2022-11-28T16:49:39;4.60;99.90
48007;DHT22;33771;48.180;11.400;2022-11-28T16:54:50;4.60;99.90
48007;DHT22;33771;48.180;11.400;2022-11-28T16:57:16;4.60;99.90
48007;DHT22;33771;48.180;11.400;2022-11-28T16:59:46;4.60;99.90
48007;DHT22;33771;48.180;11.400;2022-11-28T17:02:22;4.60;99.90
48007;DHT22;33771;48.180;11.400;2022-11-28T17:04:50;4.60;99.90
48007;DHT22;33771;48.180;11.400;2022-11-28T17:07:19;4.60;99.90
48007;DHT22;33771;48.180;11.400;2022-11-28T17:09:46;4.60;99.90
48007;DHT22;33771;48.180;11.400;2022-11-28T17:12:27;4.60;99.90
48007;DHT22;33771;48.180;11.400;2022-11-28T17:14:54;4.60;99.90
48007;DHT22;33771;48.180;11.400;2022-11-28T17:17:20;4.50;99.90
48007;DHT22;33771;48.180;11.400;2022-11-28T17:19:48;4.50;99.90
48007;DHT22;33771;48.180;11.400;2022-11-28T17:22:16;4.50;99.90
48007;DHT22;33771;48.180;11.400;2022-11-28T17:24:43;4.50;99.90
48007;DHT22;33771;48.180;11.400;2022-11-28T17:27:13;4.50;99.90
48007;DHT22;33771;48.180;11.400;2022-11-28T17:29:38;4.50;99.90
48007;DHT22;33771;48.180;11.400;2022-11-28T17:32:05;4.50;99.90
48007;DHT22;33771;48.180;11.400;2022-11-28T17:34:32;4.50;99.90
48007;DHT22;33771;48.180;11.400;2022-11-28T17:37:00;4.50;99.90
48007;DHT22;33771;48.180;11.400;2022-11-28T17:39:26;4.50;99.90
48007;DHT22;33771;48.180;11.400;2022-11-28T17:41:52;4.50;99.90
48007;DHT22;33771;48.180;11.400;2022-11-28T17:44:19;4.50;99.90
48007;DHT22;33771;48.180;11.400;2022-11-28T17:46:45;4.50;99.90
48007;DHT22;33771;48.180;11.400;2022-11-28T17:49:11;4.50;99.90
48007;DHT22;33771;48.180;11.400;2022-11-28T17:51:37;4.50;99.90
48007;DHT22;33771;48.180;11.400;2022-11-28T17:54:03;4.50;99.90
48007;DHT22;33771;48.180;11.400;2022-11-28T17:56:28;4.50;99.90
48007;DHT22;33771;48.180;11.400;2022-11-28T17:58:55;4.50;99.90
48007;DHT22;33771;48.180;11.400;2022-11-28T18:01:24;4.50;99.90
48007;DHT22;33771;48.180;11.400;2022-11-28T18:03:50;4.50;99.90
48007;DHT22;33771;48.180;11.400;2022-11-28T18:06:18;4.50;99.90
48007;DHT22;33771;48.180;11.400;2022-11-28T18:08:45;4.50;99.90
48007;DHT22;33771;48.180;11.400;2022-11-28T18:11:11;4.50;99.90
48007;DHT22;33771;48.180;11.400;2022-11-28T18:13:38;4.50;99.90
48007;DHT22;33771;48.180;11.400;2022-11-28T18:16:03;4.50;99.90
48007;DHT22;33771;48.180;11.400;2022-11-28T18:18:29;4.50;99.90
48007;DHT22;33771;48.180;11.400;2022-11-28T18:20:56;4.50;99.90
48007;DHT22;33771;48.180;11.400;2022-11-28T18:23:21;4.50;99.90
48007;DHT22;33771;48.180;11.400;2022-11-28T18:25:47;4.50;99.90
48007;DHT22;33771;48.180;11.400;2022-11-28T18:28:13;4.50;99.90
48007;DHT22;33771;48.180;11.400;2022-11-28T18:30:44;4.40;99.90
48007;DHT22;33771;48.180;11.400;2022-11-28T18:33:14;4.40;99.90
48007;DHT22;33771;48.180;11.400;2022-11-28T18:35:40;4.50;99.90
48007;DHT22;33771;48.180;11.400;2022-11-28T18:38:07;4.40;99.90
48007;DHT22;33771;48.180;11.400;2022-11-28T18:40:34;4.40;99.90
48007;DHT22;33771;48.180;11.400;2022-11-28T18:43:03;4.40;99.90